Terminal Aerodrome Forecast
Issued by NWS Twin Cities, MN

Home | Current Version | Previous Version | Graphics & Text | Print | Product List | Glossary On
Versions: 1 2 3 4 5 6 7 8 9 10 11 12 13 14 15 16
967
FTUS43 KMPX 012338
TAFEAU
TAF
KEAU 012338Z 0200/0224 31009KT P6SM OVC026
     FM020600 30005KT P6SM OVC016
     FM021700 29006KT P6SM OVC028=

USA.gov is the U.S. government's official web portal to all federal, state and local government web resources and services.